Time,TemperatureF,DewpointF,PressureIn,WindDirection,WindDirectionDegrees,WindSpeedMPH,WindSpeedGustMPH,Humidity,HourlyPrecipIn,Conditions,Clouds,dailyrainin,SoftwareType,DateUTC
2013-02-06 00:05:00,17.3,9.0,29.96,West,278,0.0,-999.0,71,-99.99,,,0.00,weatherlink.com 1.10,2013-02-06 05:05:00,
2013-02-06 00:20:00,17.5,10.0,29.97,West,278,0.0,-999.0,71,-99.99,,,0.00,weatherlink.com 1.10,2013-02-06 05:20:00,
2013-02-06 00:35:00,17.7,10.0,29.96,West,276,1.0,-999.0,73,-99.99,,,0.00,weatherlink.com 1.10,2013-02-06 05:35:00,
2013-02-06 00:51:00,17.8,10.0,29.96,West,276,0.0,-999.0,72,-99.99,,,0.00,weatherlink.com 1.10,2013-02-06 05:51:00,
2013-02-06 01:06:00,18.1,11.0,29.96,West,276,0.0,-999.0,72,-99.99,,,0.00,weatherlink.com 1.10,2013-02-06 06:06:00,
2013-02-06 01:20:00,17.7,10.0,29.95,West,276,0.0,-999.0,72,-99.99,,,0.00,weatherlink.com 1.10,2013-02-06 06:20:00,
2013-02-06 01:35:00,17.6,10.0,29.95,West,276,0.0,-999.0,73,-99.99,,,0.00,weatherlink.com 1.10,2013-02-06 06:35:00,
2013-02-06 01:50:00,18.3,11.0,29.96,West,276,0.0,-999.0,73,-99.99,,,0.00,weatherlink.com 1.10,2013-02-06 06:50:00,
2013-02-06 02:06:00,18.7,11.0,29.96,West,276,0.0,-999.0,73,-99.99,,,0.00,weatherlink.com 1.10,2013-02-06 07:06:00,
2013-02-06 02:20:00,18.4,11.0,29.95,SSE,153,0.0,-999.0,73,-99.99,,,0.00,weatherlink.com 1.10,2013-02-06 07:20:00,
2013-02-06 02:35:00,18.5,11.0,29.95,SSE,155,4.0,-999.0,72,-99.99,,,0.00,weatherlink.com 1.10,2013-02-06 07:35:00,
2013-02-06 02:50:00,18.5,11.0,29.95,SSE,155,0.0,-999.0,72,-99.99,,,0.00,weatherlink.com 1.10,2013-02-06 07:50:00,
2013-02-06 03:06:00,18.6,11.0,29.95,SSE,155,0.0,-999.0,73,-99.99,,,0.00,weatherlink.com 1.10,2013-02-06 08:06:00,
2013-02-06 03:20:00,18.9,12.0,29.95,SSE,155,0.0,-999.0,74,-99.99,,,0.00,weatherlink.com 1.10,2013-02-06 08:20:00,
2013-02-06 03:36:00,19.2,13.0,29.94,SSE,155,2.0,-999.0,75,-99.99,,,0.00,weatherlink.com 1.10,2013-02-06 08:36:00,
2013-02-06 03:51:00,18.9,13.0,29.94,SSE,155,0.0,-999.0,76,-99.99,,,0.00,weatherlink.com 1.10,2013-02-06 08:51:00,
2013-02-06 04:06:00,18.9,13.0,29.95,SSE,155,0.0,-999.0,78,-99.99,,,0.00,weatherlink.com 1.10,2013-02-06 09:06:00,
2013-02-06 04:21:00,18.4,13.0,29.95,SSE,155,0.0,-999.0,78,-99.99,,,0.00,weatherlink.com 1.10,2013-02-06 09:21:00,
2013-02-06 04:36:00,17.7,12.0,29.95,SSE,155,0.0,-999.0,79,-99.99,,,0.00,weatherlink.com 1.10,2013-02-06 09:36:00,
2013-02-06 04:51:00,19.1,14.0,29.96,SSE,155,0.0,-999.0,81,-99.99,,,0.00,weatherlink.com 1.10,2013-02-06 09:51:00,
2013-02-06 05:06:00,18.9,14.0,29.96,SSE,155,0.0,-999.0,80,-99.99,,,0.00,weatherlink.com 1.10,2013-02-06 10:06:00,
2013-02-06 05:21:00,19.2,15.0,29.96,SSE,155,2.0,-999.0,82,-99.99,,,0.00,weatherlink.com 1.10,2013-02-06 10:21:00,
2013-02-06 05:36:00,19.5,15.0,29.97,SSE,155,0.0,-999.0,82,-99.99,,,0.00,weatherlink.com 1.10,2013-02-06 10:36:00,
2013-02-06 05:51:00,18.3,14.0,29.97,SSE,155,0.0,-999.0,82,-99.99,,,0.00,weatherlink.com 1.10,2013-02-06 10:51:00,
2013-02-06 06:06:00,18.7,15.0,29.98,SSE,155,2.0,-999.0,84,-99.99,,,0.00,weatherlink.com 1.10,2013-02-06 11:06:00,
2013-02-06 06:21:00,18.4,14.0,29.98,SSE,155,2.0,-999.0,84,-99.99,,,0.00,weatherlink.com 1.10,2013-02-06 11:21:00,
2013-02-06 06:36:00,17.8,14.0,29.98,SSE,155,1.0,-999.0,85,-99.99,,,0.00,weatherlink.com 1.10,2013-02-06 11:36:00,
2013-02-06 06:51:00,18.8,16.0,29.98,SSE,155,0.0,-999.0,87,-99.99,,,0.00,weatherlink.com 1.10,2013-02-06 11:51:00,
2013-02-06 07:06:00,18.8,15.0,29.98,SSE,155,0.0,-999.0,86,-99.99,,,0.00,weatherlink.com 1.10,2013-02-06 12:06:00,
2013-02-06 07:21:00,19.2,16.0,29.99,SSE,155,0.0,-999.0,87,-99.99,,,0.00,weatherlink.com 1.10,2013-02-06 12:21:00,
2013-02-06 07:36:00,19.3,16.0,29.99,SSE,155,0.0,-999.0,87,-99.99,,,0.00,weatherlink.com 1.10,2013-02-06 12:36:00,
2013-02-06 07:51:00,19.1,16.0,30.00,SSE,155,0.0,-999.0,87,-99.99,,,0.00,weatherlink.com 1.10,2013-02-06 12:51:00,
2013-02-06 08:06:00,19.9,17.0,30.00,SSE,155,0.0,-999.0,87,-99.99,,,0.00,weatherlink.com 1.10,2013-02-06 13:06:00,
2013-02-06 08:21:00,20.6,17.0,29.99,SSE,155,2.0,-999.0,87,-99.99,,,0.00,weatherlink.com 1.10,2013-02-06 13:21:00,
2013-02-06 08:36:00,21.8,19.0,29.99,SSE,155,0.0,-999.0,87,-99.99,,,0.00,weatherlink.com 1.10,2013-02-06 13:36:00,
2013-02-06 08:51:00,22.5,19.0,29.99,SSE,155,4.0,-999.0,87,-99.99,,,0.00,weatherlink.com 1.10,2013-02-06 13:51:00,
2013-02-06 09:06:00,23.7,20.0,30.00,SSW,212,3.0,-999.0,84,-99.99,,,0.00,weatherlink.com 1.10,2013-02-06 14:06:00,
2013-02-06 09:24:00,25.2,20.0,29.99,SSW,194,4.0,-999.0,82,-99.99,,,0.00,weatherlink.com 1.10,2013-02-06 14:24:00,
2013-02-06 09:36:00,26.5,21.0,29.99,South,176,4.0,-999.0,78,-99.99,,,0.00,weatherlink.com 1.10,2013-02-06 14:36:00,
2013-02-06 09:51:00,27.3,21.0,29.99,SSE,168,4.0,-999.0,77,-99.99,,,0.00,weatherlink.com 1.10,2013-02-06 14:51:00,
2013-02-06 10:06:00,28.1,21.0,29.99,South,174,2.0,-999.0,76,-99.99,,,0.00,weatherlink.com 1.10,2013-02-06 15:06:00,
2013-02-06 10:22:00,28.8,22.0,29.99,South,176,8.0,-999.0,74,-99.99,,,0.00,weatherlink.com 1.10,2013-02-06 15:22:00,
2013-02-06 10:37:00,28.6,22.0,30.00,SSW,203,2.0,-999.0,75,-99.99,,,0.00,weatherlink.com 1.10,2013-02-06 15:37:00,
2013-02-06 10:52:00,29.8,22.0,29.99,South,175,10.0,-999.0,74,-99.99,,,0.00,weatherlink.com 1.10,2013-02-06 15:52:00,
2013-02-06 11:07:00,30.3,22.0,29.99,SSW,193,2.0,-999.0,70,-99.99,,,0.00,weatherlink.com 1.10,2013-02-06 16:07:00,
2013-02-06 11:22:00,30.4,19.0,30.00,WSW,256,14.0,-999.0,64,-99.99,,,0.00,weatherlink.com 1.10,2013-02-06 16:22:00,
2013-02-06 11:37:00,30.6,18.0,29.99,SSW,207,8.0,-999.0,61,-99.99,,,0.00,weatherlink.com 1.10,2013-02-06 16:37:00,
2013-02-06 11:52:00,31.1,18.0,30.00,WNW,285,6.0,-999.0,58,-99.99,,,0.00,weatherlink.com 1.10,2013-02-06 16:52:00,
2013-02-06 12:07:00,32.0,18.0,30.00,NW,312,5.0,-999.0,56,-99.99,,,0.00,weatherlink.com 1.10,2013-02-06 17:07:00,
2013-02-06 12:23:00,30.7,16.0,30.00,WSW,253,2.0,-999.0,55,-99.99,,,0.00,weatherlink.com 1.10,2013-02-06 17:23:00,
2013-02-06 12:37:00,30.1,18.0,30.02,NW,315,4.0,-999.0,60,-99.99,,,0.00,weatherlink.com 1.10,2013-02-06 17:37:00,
2013-02-06 12:52:00,29.5,20.0,30.02,NW,307,2.0,-999.0,67,-99.99,,,0.00,weatherlink.com 1.10,2013-02-06 17:52:00,
2013-02-06 13:07:00,29.2,19.0,30.02,WNW,284,8.0,-999.0,65,-99.99,,,0.00,weatherlink.com 1.10,2013-02-06 18:07:00,
2013-02-06 13:22:00,28.6,20.0,30.03,WNW,299,4.0,-999.0,69,-99.99,,,0.00,weatherlink.com 1.10,2013-02-06 18:22:00,
2013-02-06 13:37:00,29.8,18.0,30.03,WNW,282,4.0,-999.0,63,-99.99,,,0.00,weatherlink.com 1.10,2013-02-06 18:37:00,
2013-02-06 13:52:00,30.8,17.0,30.03,West,265,4.0,-999.0,57,-99.99,,,0.00,weatherlink.com 1.10,2013-02-06 18:52:00,
2013-02-06 14:07:00,30.4,15.0,30.03,NNW,340,13.0,-999.0,52,-99.99,,,0.00,weatherlink.com 1.10,2013-02-06 19:07:00,
2013-02-06 14:22:00,31.5,14.0,30.03,NNW,334,4.0,-999.0,49,-99.99,,,0.00,weatherlink.com 1.10,2013-02-06 19:22:00,
2013-02-06 14:37:00,30.6,11.0,30.04,NNW,340,6.0,-999.0,45,-99.99,,,0.00,weatherlink.com 1.10,2013-02-06 19:37:00,
2013-02-06 15:07:00,29.7,12.0,30.06,SW,214,2.0,-999.0,47,-99.99,,,0.00,weatherlink.com 1.10,2013-02-06 20:07:00,
2013-02-06 15:22:00,30.4,11.0,30.06,NW,326,9.0,-999.0,45,-99.99,,,0.00,weatherlink.com 1.10,2013-02-06 20:22:00,
2013-02-06 15:37:00,29.8,12.0,30.07,North,356,2.0,-999.0,47,-99.99,,,0.00,weatherlink.com 1.10,2013-02-06 20:37:00,
2013-02-06 15:53:00,29.0,13.0,30.09,North,2,10.0,-999.0,51,-99.99,,,0.00,weatherlink.com 1.10,2013-02-06 20:53:00,
2013-02-06 16:07:00,28.6,10.0,30.09,WNW,296,2.0,-999.0,46,-99.99,,,0.00,weatherlink.com 1.10,2013-02-06 21:07:00,
2013-02-06 16:23:00,28.5,11.0,30.10,NW,305,0.0,-999.0,49,-99.99,,,0.00,weatherlink.com 1.10,2013-02-06 21:23:00,
2013-02-06 16:37:00,27.5,14.0,30.11,NNW,342,2.0,-999.0,58,-99.99,,,0.00,weatherlink.com 1.10,2013-02-06 21:37:00,
2013-02-06 16:53:00,26.6,14.0,30.12,NNW,341,5.0,-999.0,59,-99.99,,,0.00,weatherlink.com 1.10,2013-02-06 21:53:00,
2013-02-06 17:07:00,26.5,14.0,30.13,NW,325,5.0,-999.0,59,-99.99,,,0.00,weatherlink.com 1.10,2013-02-06 22:07:00,
2013-02-06 17:23:00,25.7,14.0,30.14,North,352,5.0,-999.0,61,-99.99,,,0.00,weatherlink.com 1.10,2013-02-06 22:23:00,
2013-02-06 17:38:00,24.6,13.0,30.16,NNW,341,4.0,-999.0,62,-99.99,,,0.00,weatherlink.com 1.10,2013-02-06 22:38:00,
2013-02-06 17:53:00,24.0,13.0,30.17,NW,326,6.0,-999.0,62,-99.99,,,0.00,weatherlink.com 1.10,2013-02-06 22:53:00,
2013-02-06 18:08:00,23.6,11.0,30.18,NW,314,3.0,-999.0,60,-99.99,,,0.00,weatherlink.com 1.10,2013-02-06 23:08:00,
2013-02-06 18:23:00,23.3,10.0,30.19,NNE,28,9.0,-999.0,57,-99.99,,,0.00,weatherlink.com 1.10,2013-02-06 23:23:00,
2013-02-06 18:38:00,22.7,9.0,30.21,NW,308,0.0,-999.0,55,-99.99,,,0.00,weatherlink.com 1.10,2013-02-06 23:38:00,
2013-02-06 18:53:00,22.1,8.0,30.23,NE,42,5.0,-999.0,55,-99.99,,,0.00,weatherlink.com 1.10,2013-02-06 23:53:00,
2013-02-06 19:08:00,21.4,7.0,30.24,NNW,348,7.0,-999.0,55,-99.99,,,0.00,weatherlink.com 1.10,2013-02-07 00:08:00,
2013-02-06 19:23:00,20.6,7.0,30.24,North,10,9.0,-999.0,55,-99.99,,,0.00,weatherlink.com 1.10,2013-02-07 00:23:00,
2013-02-06 19:38:00,20.0,5.0,30.25,North,1,3.0,-999.0,53,-99.99,,,0.00,weatherlink.com 1.10,2013-02-07 00:38:00,
2013-02-06 19:53:00,19.4,4.0,30.26,NNW,327,4.0,-999.0,52,-99.99,,,0.00,weatherlink.com 1.10,2013-02-07 00:53:00,
2013-02-06 20:08:00,18.8,4.0,30.27,North,356,3.0,-999.0,52,-99.99,,,0.00,weatherlink.com 1.10,2013-02-07 01:08:00,
2013-02-06 20:23:00,18.2,3.0,30.28,North,3,0.0,-999.0,51,-99.99,,,0.00,weatherlink.com 1.10,2013-02-07 01:23:00,
2013-02-06 20:38:00,17.7,1.0,30.29,NE,51,6.0,-999.0,49,-99.99,,,0.00,weatherlink.com 1.10,2013-02-07 01:38:00,
2013-02-06 21:09:00,16.9,-1.0,30.30,NNW,337,12.0,-999.0,45,-99.99,,,0.00,weatherlink.com 1.10,2013-02-07 02:09:00,
2013-02-06 21:24:00,16.5,-2.0,30.31,NW,309,2.0,-999.0,45,-99.99,,,0.00,weatherlink.com 1.10,2013-02-07 02:24:00,
2013-02-06 21:38:00,15.9,-2.0,30.32,NNW,332,2.0,-999.0,45,-99.99,,,0.00,weatherlink.com 1.10,2013-02-07 02:38:00,
2013-02-06 21:53:00,15.3,-3.0,30.33,North,10,6.0,-999.0,45,-99.99,,,0.00,weatherlink.com 1.10,2013-02-07 02:53:00,
2013-02-06 22:09:00,14.9,-3.0,30.33,WSW,242,2.0,-999.0,45,-99.99,,,0.00,weatherlink.com 1.10,2013-02-07 03:09:00,
2013-02-06 22:24:00,14.6,-3.0,30.33,NNW,328,2.0,-999.0,45,-99.99,,,0.00,weatherlink.com 1.10,2013-02-07 03:24:00,
2013-02-06 22:39:00,14.3,-4.0,30.34,NNW,344,1.0,-999.0,45,-99.99,,,0.00,weatherlink.com 1.10,2013-02-07 03:39:00,
2013-02-06 22:54:00,14.1,-4.0,30.35,North,355,1.0,-999.0,45,-99.99,,,0.00,weatherlink.com 1.10,2013-02-07 03:54:00,
2013-02-06 23:09:00,13.7,-4.0,30.36,NW,308,3.0,-999.0,46,-99.99,,,0.00,weatherlink.com 1.10,2013-02-07 04:09:00,
2013-02-06 23:24:00,13.4,-4.0,30.35,NNW,338,0.0,-999.0,46,-99.99,,,0.00,weatherlink.com 1.10,2013-02-07 04:24:00,
2013-02-06 23:39:00,13.0,-4.0,30.35,NW,313,1.0,-999.0,47,-99.99,,,0.00,weatherlink.com 1.10,2013-02-07 04:39:00,
2013-02-06 23:54:00,12.7,-4.0,30.36,NW,306,1.0,-999.0,47,-99.99,,,0.00,weatherlink.com 1.10,2013-02-07 04:54:00,